createdAt,value
2023-01-20T00:01:22.348Z,2.00
2023-01-20T00:03:48.983Z,1.70
2023-01-20T00:06:15.482Z,1.50
2023-01-20T00:08:42.335Z,1.60
2023-01-20T00:11:12.204Z,2.03
2023-01-20T00:13:39.463Z,1.55
2023-01-20T00:16:08.047Z,1.83
2023-01-20T00:18:35.143Z,1.50
2023-01-20T00:21:05.919Z,1.60
2023-01-20T00:23:32.708Z,1.52
2023-01-20T00:25:59.444Z,1.40
2023-01-20T00:28:26.047Z,1.98
2023-01-20T00:30:52.478Z,2.30
2023-01-20T00:33:18.963Z,1.90
2023-01-20T00:35:45.387Z,1.95
2023-01-20T00:38:11.851Z,2.63
2023-01-20T00:40:38.269Z,2.60
2023-01-20T00:43:04.662Z,2.28
2023-01-20T00:45:31.078Z,2.22
2023-01-20T00:47:57.518Z,3.05
2023-01-20T00:50:23.979Z,3.38
2023-01-20T00:52:50.391Z,3.65
2023-01-20T00:55:16.817Z,4.18
2023-01-20T00:57:43.245Z,3.13
2023-01-20T01:00:10.260Z,3.40
2023-01-20T01:02:40.111Z,3.80
2023-01-20T01:05:06.838Z,3.88
2023-01-20T01:07:33.320Z,3.78
2023-01-20T01:09:59.732Z,4.38
2023-01-20T01:12:26.332Z,4.43
2023-01-20T01:14:52.766Z,4.80
2023-01-20T01:17:19.440Z,5.13
2023-01-20T01:19:45.868Z,5.35
2023-01-20T01:22:12.293Z,5.22
2023-01-20T01:24:38.897Z,5.15
2023-01-20T01:27:05.377Z,6.43
2023-01-20T01:29:31.804Z,5.55
2023-01-20T01:31:58.227Z,5.72
2023-01-20T01:34:24.736Z,6.30
2023-01-20T01:36:51.194Z,6.07
2023-01-20T01:39:17.647Z,6.43
2023-01-20T01:41:44.056Z,6.43
2023-01-20T01:44:12.772Z,6.07
2023-01-20T01:46:41.335Z,6.85
2023-01-20T01:49:20.071Z,6.22
2023-01-20T01:52:08.942Z,6.53
2023-01-20T01:54:39.877Z,5.40
2023-01-20T01:57:07.849Z,4.88
2023-01-20T01:59:35.086Z,7.72
2023-01-20T02:02:01.783Z,7.35
2023-01-20T02:04:28.463Z,7.35
2023-01-20T02:07:09.281Z,7.43
2023-01-20T02:09:36.151Z,7.53
2023-01-20T02:12:06.370Z,8.93
2023-01-20T02:14:42.607Z,8.90
2023-01-20T02:17:18.329Z,7.68
2023-01-20T02:20:17.676Z,8.40
2023-01-20T02:22:56.181Z,7.60
2023-01-20T02:25:28.547Z,7.25
2023-01-20T02:28:28.864Z,8.20
2023-01-20T02:31:07.480Z,8.32
2023-01-20T02:33:36.828Z,7.13
2023-01-20T02:36:19.511Z,8.45
2023-01-20T02:39:01.144Z,7.85
2023-01-20T02:41:41.806Z,9.00
2023-01-20T02:44:16.419Z,8.18
2023-01-20T02:47:21.974Z,9.07
2023-01-20T02:50:13.059Z,8.82
2023-01-20T02:52:47.615Z,9.23
2023-01-20T02:55:22.265Z,8.85
2023-01-20T02:57:55.813Z,9.38
2023-01-20T03:00:31.664Z,10.30
2023-01-20T03:03:01.905Z,10.68
2023-01-20T03:05:35.027Z,9.20
2023-01-20T03:08:06.450Z,9.70
2023-01-20T03:10:35.495Z,10.68
2023-01-20T03:13:21.260Z,9.45
2023-01-20T03:16:01.335Z,10.20
2023-01-20T03:18:33.809Z,10.20
2023-01-20T03:21:02.435Z,10.98
2023-01-20T03:23:33.310Z,10.90
2023-01-20T03:26:02.981Z,12.30
2023-01-20T03:28:29.416Z,11.20
2023-01-20T03:30:57.461Z,12.85
2023-01-20T03:33:24.731Z,11.90
2023-01-20T03:35:52.261Z,11.30
2023-01-20T03:38:18.784Z,13.70
2023-01-20T03:41:29.840Z,12.30
2023-01-20T03:44:11.463Z,11.82
2023-01-20T03:47:31.534Z,12.65
2023-01-20T03:50:10.040Z,11.07
2023-01-20T03:52:47.483Z,13.10
2023-01-20T03:55:26.456Z,13.63
2023-01-20T03:58:04.612Z,11.68
2023-01-20T04:00:37.869Z,14.02
2023-01-20T04:03:08.782Z,12.10
2023-01-20T04:05:37.431Z,12.73
2023-01-20T04:08:08.710Z,13.95
2023-01-20T04:10:38.720Z,12.38
2023-01-20T04:13:05.395Z,12.85
2023-01-20T04:15:42.055Z,12.67
2023-01-20T04:18:16.903Z,12.55
2023-01-20T04:20:46.502Z,12.90
2023-01-20T04:23:20.140Z,13.15
2023-01-20T04:25:46.847Z,13.13
2023-01-20T04:28:13.242Z,13.00
2023-01-20T04:30:39.690Z,12.52
2023-01-20T04:33:06.248Z,13.32
2023-01-20T04:35:32.660Z,13.93
2023-01-20T04:37:59.202Z,13.15
2023-01-20T04:40:25.664Z,11.52
2023-01-20T04:42:52.105Z,11.98
2023-01-20T04:45:18.728Z,12.98
2023-01-20T04:47:45.120Z,11.75
2023-01-20T04:50:13.819Z,13.25
2023-01-20T04:52:40.398Z,12.68
2023-01-20T04:55:07.307Z,13.05
2023-01-20T04:57:33.752Z,13.25
2023-01-20T05:00:00.200Z,12.10
2023-01-20T05:02:27.017Z,12.35
2023-01-20T05:04:53.485Z,12.47
2023-01-20T05:07:19.885Z,13.15
2023-01-20T05:09:46.289Z,12.82
2023-01-20T05:12:12.817Z,12.68
2023-01-20T05:14:39.215Z,11.32
2023-01-20T05:17:05.663Z,11.82
2023-01-20T05:19:32.088Z,13.13
2023-01-20T05:21:59.864Z,13.07
2023-01-20T05:24:26.305Z,13.30
2023-01-20T05:26:52.762Z,13.75
2023-01-20T05:29:19.278Z,11.60
2023-01-20T05:31:45.719Z,13.43
2023-01-20T05:34:12.248Z,12.27
2023-01-20T05:36:38.809Z,12.65
2023-01-20T05:39:05.284Z,12.77
2023-01-20T05:41:32.387Z,13.20
2023-01-20T05:43:58.827Z,12.82
2023-01-20T05:46:25.325Z,12.02
2023-01-20T05:48:51.772Z,15.55
2023-01-20T05:51:18.182Z,12.77
2023-01-20T05:53:44.784Z,14.02
2023-01-20T05:56:15.691Z,13.15
2023-01-20T05:58:42.429Z,12.52
2023-01-20T06:01:11.857Z,14.82
2023-01-20T06:03:38.418Z,13.77
2023-01-20T06:06:07.872Z,14.00
2023-01-20T06:08:35.258Z,13.82
2023-01-20T06:11:19.745Z,14.98
2023-01-20T06:13:49.366Z,14.25
2023-01-20T06:16:20.029Z,13.95
2023-01-20T06:18:46.573Z,14.57
2023-01-20T06:21:12.994Z,15.10
2023-01-20T06:23:39.745Z,15.73
2023-01-20T06:26:12.608Z,16.05
2023-01-20T06:28:39.246Z,16.30
2023-01-20T06:31:12.016Z,14.77
2023-01-20T06:33:38.573Z,15.65
2023-01-20T06:36:06.171Z,15.77
2023-01-20T06:38:34.935Z,15.50
2023-01-20T06:41:03.868Z,15.77
2023-01-20T06:43:31.408Z,16.40
2023-01-20T06:46:02.961Z,16.23
2023-01-20T06:48:30.095Z,15.93
2023-01-20T06:51:07.966Z,14.48
2023-01-20T06:53:35.036Z,14.80
2023-01-20T06:56:04.578Z,16.27
2023-01-20T06:58:32.961Z,15.55
2023-01-20T07:01:15.773Z,15.90
2023-01-20T07:03:45.735Z,14.38
2023-01-20T07:06:25.861Z,14.05
2023-01-20T07:08:52.730Z,12.48
2023-01-20T07:11:19.898Z,14.30
2023-01-20T07:14:10.250Z,13.02
2023-01-20T07:16:37.248Z,12.43
2023-01-20T07:19:04.226Z,12.80
2023-01-20T07:21:30.838Z,13.80
2023-01-20T07:24:01.326Z,13.27
2023-01-20T07:26:27.976Z,12.05
2023-01-20T07:28:54.459Z,11.13
2023-01-20T07:31:26.698Z,12.63
2023-01-20T07:33:57.523Z,12.40
2023-01-20T07:36:26.378Z,14.05
2023-01-20T07:38:53.755Z,13.27
2023-01-20T07:41:21.404Z,14.43
2023-01-20T07:43:49.929Z,13.95
2023-01-20T07:46:16.821Z,14.40
2023-01-20T07:48:43.609Z,14.07
2023-01-20T07:51:12.847Z,13.80
2023-01-20T07:53:47.954Z,12.63
2023-01-20T07:56:20.309Z,14.13
2023-01-20T07:58:50.328Z,13.35
2023-01-20T08:01:22.525Z,13.93
2023-01-20T08:03:49.719Z,13.73
2023-01-20T08:06:19.185Z,12.18
2023-01-20T08:08:46.034Z,14.75
2023-01-20T08:11:14.193Z,13.85
2023-01-20T08:13:41.079Z,13.88
2023-01-20T08:16:10.364Z,12.45
2023-01-20T08:18:36.978Z,13.85
2023-01-20T08:21:08.261Z,15.40
2023-01-20T08:23:35.883Z,12.70
2023-01-20T08:26:05.424Z,12.87
2023-01-20T08:28:35.421Z,12.85
2023-01-20T08:31:13.211Z,12.90
2023-01-20T08:33:42.158Z,11.40
2023-01-20T08:36:17.302Z,13.43
2023-01-20T08:38:44.749Z,13.00
2023-01-20T08:41:15.668Z,12.40
2023-01-20T08:43:42.292Z,13.02
2023-01-20T08:46:11.925Z,12.48
2023-01-20T08:48:39.739Z,13.40
2023-01-20T08:51:08.660Z,12.70
2023-01-20T08:53:35.741Z,12.95
2023-01-20T08:56:03.276Z,13.23
2023-01-20T08:58:30.331Z,13.70
2023-01-20T09:00:56.827Z,12.93
2023-01-20T09:03:23.957Z,13.48
2023-01-20T09:05:50.822Z,12.85
2023-01-20T09:08:20.021Z,12.25
2023-01-20T09:10:46.700Z,13.55
2023-01-20T09:13:13.103Z,13.02
2023-01-20T09:15:39.530Z,13.88
2023-01-20T09:18:06.106Z,13.20
2023-01-20T09:20:32.519Z,12.65
2023-01-20T09:23:03.018Z,12.27
2023-01-20T09:25:29.641Z,11.77
2023-01-20T09:27:56.054Z,12.23
2023-01-20T09:30:22.441Z,12.30
2023-01-20T09:32:53.038Z,11.80
2023-01-20T09:35:19.654Z,12.15
2023-01-20T09:38:04.799Z,11.35
2023-01-20T09:41:02.081Z,12.45
2023-01-20T09:43:54.150Z,11.60
2023-01-20T09:47:11.093Z,10.52
2023-01-20T09:50:14.659Z,12.38
2023-01-20T09:53:00.438Z,10.88
2023-01-20T09:55:26.759Z,11.90
2023-01-20T09:58:08.246Z,12.00
2023-01-20T10:00:36.860Z,11.23
2023-01-20T10:03:22.347Z,11.30
2023-01-20T10:05:53.404Z,12.02
2023-01-20T10:08:32.342Z,10.27
2023-01-20T10:11:05.583Z,10.30
2023-01-20T10:13:51.573Z,10.65
2023-01-20T10:16:45.837Z,10.05
2023-01-20T10:19:29.659Z,11.35
2023-01-20T10:22:07.100Z,10.25
2023-01-20T10:24:47.340Z,11.52
2023-01-20T10:27:13.732Z,10.20
2023-01-20T10:29:56.784Z,10.25
2023-01-20T10:32:36.412Z,9.80
2023-01-20T10:35:15.504Z,9.40
2023-01-20T10:37:42.653Z,10.13
2023-01-20T10:40:27.719Z,10.55
2023-01-20T10:42:59.578Z,9.27
2023-01-20T10:45:42.755Z,10.30
2023-01-20T10:48:37.583Z,9.17
2023-01-20T10:51:25.920Z,9.02
2023-01-20T10:54:01.550Z,8.52
2023-01-20T10:56:41.763Z,8.50
2023-01-20T10:59:13.769Z,8.85
2023-01-20T11:01:41.414Z,8.25
2023-01-20T11:04:19.432Z,7.40
2023-01-20T11:06:54.505Z,8.57
2023-01-20T11:09:29.571Z,8.15
2023-01-20T11:11:58.265Z,8.70
2023-01-20T11:14:26.146Z,8.03
2023-01-20T11:17:04.447Z,8.43
2023-01-20T11:19:46.973Z,7.60
2023-01-20T11:22:20.604Z,7.68
2023-01-20T11:24:47.378Z,8.00
2023-01-20T11:27:21.358Z,8.05
2023-01-20T11:30:04.339Z,8.48
2023-01-20T11:32:37.245Z,8.20
2023-01-20T11:35:21.697Z,7.97
2023-01-20T11:37:48.469Z,8.77
2023-01-20T11:40:25.146Z,8.23
2023-01-20T11:42:53.355Z,8.75
2023-01-20T11:45:30.223Z,8.23
2023-01-20T11:48:16.471Z,8.63
2023-01-20T11:50:57.435Z,8.27
2023-01-20T11:53:26.518Z,8.70
2023-01-20T11:55:59.348Z,8.95
2023-01-20T11:58:47.559Z,9.18
2023-01-20T12:01:25.824Z,8.30
2023-01-20T12:04:21.862Z,7.47
2023-01-20T12:07:09.280Z,7.82
2023-01-20T12:09:40.104Z,8.20
2023-01-20T12:12:09.860Z,8.82
2023-01-20T12:14:47.175Z,9.30
2023-01-20T12:17:32.399Z,8.75
2023-01-20T12:20:05.494Z,9.02
2023-01-20T12:22:41.143Z,9.10
2023-01-20T12:25:19.873Z,8.18
2023-01-20T12:28:01.296Z,7.80
2023-01-20T12:30:37.850Z,8.23
2023-01-20T12:33:05.251Z,8.52
2023-01-20T12:35:46.187Z,8.35
2023-01-20T12:38:19.632Z,7.68
2023-01-20T12:40:52.604Z,8.32
2023-01-20T12:43:43.745Z,7.30
2023-01-20T12:46:32.245Z,7.50
2023-01-20T12:49:29.082Z,8.10
2023-01-20T12:52:09.368Z,8.95
2023-01-20T12:54:53.337Z,8.30
2023-01-20T12:57:41.444Z,9.05
2023-01-20T13:00:29.526Z,7.53
2023-01-20T13:03:14.517Z,9.02
2023-01-20T13:06:01.353Z,8.55
2023-01-20T13:09:05.884Z,7.13
2023-01-20T13:11:56.969Z,8.75
2023-01-20T13:17:43.497Z,7.97
2023-01-20T13:20:30.938Z,8.18
2023-01-20T13:23:04.201Z,7.78
2023-01-20T13:25:32.319Z,7.32
2023-01-20T13:27:59.222Z,5.93
2023-01-20T13:30:47.811Z,6.75
2023-01-20T13:33:33.491Z,6.45
2023-01-20T13:36:02.014Z,6.35
2023-01-20T13:38:33.039Z,6.47
2023-01-20T13:41:03.484Z,9.40
2023-01-20T13:43:32.808Z,7.13
2023-01-20T13:46:05.790Z,6.20
2023-01-20T13:48:34.246Z,7.55
2023-01-20T13:51:26.965Z,7.00
2023-01-20T13:53:53.562Z,6.13
2023-01-20T13:56:33.666Z,7.95
2023-01-20T13:59:00.240Z,6.65
2023-01-20T14:01:27.897Z,7.10
2023-01-20T14:04:03.737Z,6.22
2023-01-20T14:06:33.038Z,7.50
2023-01-20T14:09:01.403Z,6.93
2023-01-20T14:11:29.662Z,7.00
2023-01-20T14:14:07.545Z,7.10
2023-01-20T14:16:41.199Z,6.75
2023-01-20T14:19:19.932Z,6.97
2023-01-20T14:21:53.128Z,7.57
2023-01-20T14:24:43.757Z,7.43
2023-01-20T14:27:28.286Z,7.32
2023-01-20T14:29:56.840Z,7.30
2023-01-20T14:32:35.197Z,8.30
2023-01-20T14:35:04.294Z,8.07
2023-01-20T14:37:38.916Z,7.43
2023-01-20T14:40:32.452Z,7.63
2023-01-20T14:43:07.836Z,7.38
2023-01-20T14:45:36.827Z,5.82
2023-01-20T14:48:05.220Z,6.07
2023-01-20T14:50:31.746Z,6.90
2023-01-20T14:52:58.180Z,6.95
2023-01-20T14:55:35.896Z,6.22
2023-01-20T14:58:18.708Z,8.98
2023-01-20T15:00:49.921Z,9.98
2023-01-20T15:03:21.841Z,9.05
2023-01-20T15:05:59.145Z,8.65
2023-01-20T15:08:34.691Z,7.53
2023-01-20T15:11:21.650Z,7.28
2023-01-20T15:13:51.104Z,7.93
2023-01-20T15:16:36.995Z,7.22
2023-01-20T15:19:15.592Z,7.07
2023-01-20T15:21:45.925Z,6.57
2023-01-20T15:24:15.128Z,7.07
2023-01-20T15:26:42.085Z,6.20
2023-01-20T15:29:21.913Z,6.65
2023-01-20T15:31:49.194Z,6.70
2023-01-20T15:34:15.734Z,6.72
2023-01-20T15:36:43.983Z,7.22
2023-01-20T15:39:18.991Z,6.28
2023-01-20T15:41:46.549Z,6.30
2023-01-20T15:44:12.927Z,6.47
2023-01-20T15:46:40.453Z,7.15
2023-01-20T15:49:11.676Z,6.55
2023-01-20T15:51:38.719Z,6.43
2023-01-20T15:54:07.368Z,6.88
2023-01-20T15:56:35.227Z,5.93
2023-01-20T15:59:02.190Z,7.00
2023-01-20T16:01:29.504Z,6.40
2023-01-20T16:03:57.443Z,7.38
2023-01-20T16:06:30.411Z,6.95
2023-01-20T16:08:57.819Z,5.80
2023-01-20T16:11:24.284Z,6.60
2023-01-20T16:13:50.683Z,6.68
2023-01-20T16:16:19.325Z,6.15
2023-01-20T16:18:46.296Z,5.78
2023-01-20T16:21:15.211Z,6.55
2023-01-20T16:23:42.141Z,5.57
2023-01-20T16:26:23.516Z,5.35
2023-01-20T16:28:51.648Z,5.68
2023-01-20T16:31:19.174Z,5.43
2023-01-20T16:33:45.945Z,5.97
2023-01-20T16:36:15.016Z,5.65
2023-01-20T16:38:42.417Z,5.88
2023-01-20T16:41:21.672Z,5.72
2023-01-20T16:43:48.808Z,6.05
2023-01-20T16:46:17.686Z,6.25
2023-01-20T16:48:44.144Z,6.20
2023-01-20T16:51:16.788Z,7.10
2023-01-20T16:53:43.270Z,6.70
2023-01-20T16:56:19.605Z,6.05
2023-01-20T16:58:51.613Z,5.93
2023-01-20T17:01:23.438Z,5.97
2023-01-20T17:03:52.252Z,7.03
2023-01-20T17:06:21.244Z,6.93
2023-01-20T17:08:49.677Z,5.90
2023-01-20T17:11:28.128Z,6.22
2023-01-20T17:13:55.608Z,8.65
2023-01-20T17:16:22.991Z,7.70
2023-01-20T17:18:50.897Z,7.57
2023-01-20T17:21:19.367Z,9.88
2023-01-20T17:23:50.271Z,9.18
2023-01-20T17:26:16.784Z,8.77
2023-01-20T17:28:46.580Z,9.32
2023-01-20T17:31:13.890Z,9.25
2023-01-20T17:33:46.205Z,9.50
2023-01-20T17:36:13.072Z,10.55
2023-01-20T17:38:42.321Z,11.35
2023-01-20T17:41:10.177Z,11.23
2023-01-20T17:43:38.926Z,11.35
2023-01-20T17:46:29.560Z,10.00
2023-01-20T17:48:56.948Z,12.05
2023-01-20T17:51:25.443Z,10.27
2023-01-20T17:53:51.937Z,9.35
2023-01-20T17:56:20.354Z,11.15
2023-01-20T17:58:47.427Z,10.82
2023-01-20T18:01:21.078Z,10.45
2023-01-20T18:03:49.666Z,10.20
2023-01-20T18:06:19.273Z,12.05
2023-01-20T18:08:52.433Z,11.65
2023-01-20T18:11:21.536Z,11.95
2023-01-20T18:13:50.222Z,14.10
2023-01-20T18:16:18.866Z,12.73
2023-01-20T18:18:47.116Z,11.93
2023-01-20T18:21:13.524Z,12.40
2023-01-20T18:23:41.144Z,12.23
2023-01-20T18:26:09.610Z,14.23
2023-01-20T18:28:36.800Z,13.43
2023-01-20T18:31:09.745Z,12.50
2023-01-20T18:33:43.980Z,12.05
2023-01-20T18:36:14.781Z,13.75
2023-01-20T18:38:44.919Z,12.20
2023-01-20T18:41:13.136Z,13.97
2023-01-20T18:43:40.446Z,11.02
2023-01-20T18:46:08.589Z,14.02
2023-01-20T18:48:39.646Z,14.55
2023-01-20T18:51:07.620Z,14.57
2023-01-20T18:53:34.158Z,12.00
2023-01-20T18:56:08.740Z,14.10
2023-01-20T18:58:37.384Z,13.73
2023-01-20T19:01:12.141Z,11.57
2023-01-20T19:03:39.740Z,12.55
2023-01-20T19:06:21.686Z,10.90
2023-01-20T19:08:48.687Z,12.25
2023-01-20T19:11:20.763Z,11.95
2023-01-20T19:13:51.142Z,11.63
2023-01-20T19:16:19.115Z,13.20
2023-01-20T19:18:51.698Z,11.93
2023-01-20T19:21:18.319Z,14.20
2023-01-20T19:23:51.838Z,11.30
2023-01-20T19:26:26.172Z,12.82
2023-01-20T19:29:02.305Z,12.65
2023-01-20T19:31:34.984Z,13.60
2023-01-20T19:34:01.793Z,12.65
2023-01-20T19:36:28.231Z,13.23
2023-01-20T19:38:54.987Z,11.27
2023-01-20T19:41:25.594Z,13.50
2023-01-20T19:43:57.417Z,12.05
2023-01-20T19:46:26.634Z,11.50
2023-01-20T19:48:54.495Z,12.38
2023-01-20T19:51:21.104Z,11.98
2023-01-20T19:53:50.117Z,13.80
2023-01-20T19:56:19.315Z,12.60
2023-01-20T19:58:47.227Z,12.18
2023-01-20T20:01:22.605Z,11.32
2023-01-20T20:03:51.804Z,12.02
2023-01-20T20:06:23.188Z,12.95
2023-01-20T20:08:50.603Z,12.35
2023-01-20T20:11:17.115Z,11.23
2023-01-20T20:13:43.539Z,11.25
2023-01-20T20:16:10.235Z,12.82
2023-01-20T20:18:36.659Z,12.32
2023-01-20T20:21:04.754Z,11.83
2023-01-20T20:23:31.149Z,11.30
2023-01-20T20:25:57.642Z,11.55
2023-01-20T20:28:25.283Z,11.70
2023-01-20T20:30:52.834Z,13.20
2023-01-20T20:33:19.723Z,11.27
2023-01-20T20:35:46.341Z,10.93
2023-01-20T20:38:12.741Z,11.85
2023-01-20T20:40:39.226Z,12.07
2023-01-20T20:43:05.604Z,10.38
2023-01-20T20:45:32.136Z,11.50
2023-01-20T20:47:58.545Z,11.55
2023-01-20T20:50:25.282Z,11.10
2023-01-20T20:52:52.607Z,11.98
2023-01-20T20:55:19.215Z,11.25
2023-01-20T20:57:45.666Z,10.45
2023-01-20T21:00:12.630Z,11.85
2023-01-20T21:02:39.723Z,10.77
2023-01-20T21:05:07.616Z,11.98
2023-01-20T21:07:34.296Z,10.90
2023-01-20T21:10:00.893Z,12.03
2023-01-20T21:12:27.334Z,11.35
2023-01-20T21:14:53.699Z,11.57
2023-01-20T21:17:20.108Z,12.35
2023-01-20T21:19:52.124Z,12.13
2023-01-20T21:22:19.821Z,11.40
2023-01-20T21:24:46.176Z,12.45
2023-01-20T21:27:13.276Z,11.48
2023-01-20T21:29:39.644Z,12.25
2023-01-20T21:32:06.078Z,12.45
2023-01-20T21:34:32.481Z,13.83
2023-01-20T21:36:59.573Z,12.98
2023-01-20T21:39:25.967Z,12.13
2023-01-20T21:41:52.332Z,12.20
2023-01-20T21:44:32.985Z,12.93
2023-01-20T21:47:04.825Z,11.13
2023-01-20T21:49:50.132Z,11.38
2023-01-20T21:52:37.864Z,14.93
2023-01-20T21:55:05.159Z,12.00
2023-01-20T21:57:32.662Z,12.40
2023-01-20T21:59:59.926Z,11.90
2023-01-20T22:02:29.689Z,13.75
2023-01-20T22:04:56.364Z,10.85
2023-01-20T22:07:23.305Z,11.13
2023-01-20T22:09:49.868Z,13.35
2023-01-20T22:12:16.437Z,13.40
2023-01-20T22:14:43.019Z,12.50
2023-01-20T22:17:10.871Z,13.30
2023-01-20T22:19:37.866Z,13.48
2023-01-20T22:22:05.006Z,11.23
2023-01-20T22:24:31.639Z,12.70
2023-01-20T22:26:58.303Z,12.02
2023-01-20T22:29:25.205Z,12.75
2023-01-20T22:31:53.249Z,10.05
2023-01-20T22:34:20.261Z,13.00
2023-01-20T22:36:46.912Z,10.00
2023-01-20T22:39:14.482Z,12.82
2023-01-20T22:41:41.013Z,14.27
2023-01-20T22:44:08.105Z,14.10
2023-01-20T22:46:34.487Z,14.38
2023-01-20T22:49:00.925Z,15.00
2023-01-20T22:51:29.714Z,15.13
2023-01-20T22:53:58.126Z,12.32
2023-01-20T22:56:27.853Z,13.57
2023-01-20T22:58:56.519Z,14.18
2023-01-20T23:01:25.749Z,13.48
2023-01-20T23:03:57.046Z,12.80
2023-01-20T23:06:24.444Z,13.15
2023-01-20T23:08:50.862Z,15.43
2023-01-20T23:11:18.974Z,12.77
2023-01-20T23:13:46.705Z,13.70
2023-01-20T23:16:17.457Z,13.93
2023-01-20T23:18:45.619Z,14.55
2023-01-20T23:21:12.473Z,16.02
2023-01-20T23:23:39.273Z,12.35
2023-01-20T23:26:12.103Z,11.90
2023-01-20T23:28:38.552Z,12.93
2023-01-20T23:31:07.378Z,10.68
2023-01-20T23:33:34.448Z,14.00
2023-01-20T23:36:08.616Z,11.75
2023-01-20T23:38:35.085Z,13.85
2023-01-20T23:41:03.151Z,11.98
2023-01-20T23:43:30.789Z,12.95
2023-01-20T23:46:02.233Z,12.10
2023-01-20T23:48:29.421Z,12.60
2023-01-20T23:50:59.606Z,11.47
2023-01-20T23:53:27.307Z,10.88
2023-01-20T23:56:01.639Z,10.57
2023-01-20T23:58:28.434Z,10.43
